Погода Росохина 2 недели

Минская область, Белоруссия

25 мая-07 июня
  • 25мая
    Сегодня
    +13°
    +25°
    Облачно с прояснениями
    ВремяПогодаТемператураВлажностьДавлениеВетер, м/сВероятность осадков
    00:00Ясно и безоблачно+17°C69 %754 мм3.5 м/с2 %
    03:00Ясно и безоблачно+15°C74 %754 мм3.8 м/с2 %
    06:00Ясно и безоблачно+14°C70 %754 мм3.8 м/с2 %
    09:00Ясно и безоблачно+20°C65 %754 мм3.4 м/с2 %
    12:00Ясно и безоблачно+23°C53 %754 мм3.7 м/с2 %
    15:00Облачно с прояснениями+25°C48 %754 мм4.2 м/с6 %
    18:00Облачно с прояснениями+25°C47 %753 мм3.5 м/с20 %
    21:00Небольшая облачность+22°C64 %753 мм1.8 м/с13 %
  • 26мая
    Воскресенье
    +14°
    +26°
    Практически безоблачно
    ВремяПогодаТемператураВлажностьДавлениеВетер, м/сВероятность осадков
    00:00Практически безоблачно+16°C85 %753 мм2.1 м/с2 %
    03:00Практически безоблачно+15°C87 %753 мм2.1 м/с2 %
    06:00Ясно и безоблачно+14°C82 %754 мм1.9 м/с2 %
    09:00Ясно и безоблачно+19°C60 %754 мм0.7 м/с2 %
    12:00Практически безоблачно+24°C41 %755 мм2.1 м/с2 %
    15:00Практически безоблачно+26°C37 %754 мм2.6 м/с2 %
    18:00Ясно и безоблачно+25°C33 %753 мм3.1 м/с2 %
    21:00Ясно и безоблачно+21°C64 %753 мм2.1 м/с2 %
  • 27мая
    Понедельник
    +13°
    +26°
    Ясно и безоблачно
    ВремяПогодаТемператураВлажностьДавлениеВетер, м/сВероятность осадков
    00:00Ясно и безоблачно+16°C73 %753 мм1.5 м/с2 %
    03:00Ясно и безоблачно+15°C83 %753 мм2.7 м/с2 %
    06:00Ясно и безоблачно+15°C83 %753 мм1.6 м/с2 %
    09:00Ясно и безоблачно+20°C61 %754 мм2.1 м/с2 %
    12:00Практически безоблачно+25°C42 %754 мм2.9 м/с2 %
    15:00Ясно и безоблачно+26°C42 %753 мм2.1 м/с4 %
    18:00Ясно и безоблачно+25°C42 %752 мм2.0 м/с14 %
    21:00Практически безоблачно+22°C61 %751 мм2.2 м/с3 %
  • 28мая
    Вторник
    +14°
    +26°
    Ясно и безоблачно
    ВремяПогодаТемператураВлажностьДавлениеВетер, м/сВероятность осадков
    00:00Ясно и безоблачно+17°C79 %751 мм2.4 м/с2 %
    03:00Ясно и безоблачно+15°C83 %751 мм2.1 м/с2 %
    06:00Ясно и безоблачно+15°C89 %751 мм1.2 м/с2 %
    09:00Ясно и безоблачно+21°C65 %751 мм1.5 м/с2 %
    12:00Ясно и безоблачно+24°C41 %750 мм2.6 м/с10 %
    15:00Ясно и безоблачно+25°C35 %749 мм3.1 м/с19 %
    18:00Практически безоблачно+24°C40 %748 мм3.4 м/с34 %
    21:00Практически безоблачно+22°C62 %748 мм3.1 м/с13 %
  • 29мая
    Среда
    +15°
    +27°
    Практически безоблачно
    ВремяПогодаТемператураВлажностьДавлениеВетер, м/сВероятность осадков
    00:00Практически безоблачно+18°C77 %748 мм2.6 м/с3 %
    03:00Ясно и безоблачно+16°C88 %747 мм2.5 м/с2 %
    06:00Ясно и безоблачно+15°C91 %747 мм2.0 м/с3 %
    09:00Пасмурно, сплошная облачность+20°C71 %747 мм1.9 м/с3 %
    12:00Практически безоблачно+24°C48 %747 мм1.9 м/с25 %
    15:00Практически безоблачно+27°C39 %746 мм2.0 м/с44 %
    18:00Облачно с прояснениями, небольшой дождь+26°C40 %745 мм2.8 м/с50 %
    21:00Облачно с прояснениями+22°C61 %745 мм3.0 м/с16 %
Мы используем cookies
Соглашаюсь